sensor_id;sensor_type;location;lat;lon;timestamp;pressure;altitude;pressure_sealevel;temperature;humidity
63916;BME280;50094;51.356;-0.196;2023-06-14T00:01:05;100868.93;;;26.04;27.91
63916;BME280;50094;51.356;-0.196;2023-06-14T00:03:32;100871.52;;;26.04;28.01
63916;BME280;50094;51.356;-0.196;2023-06-14T00:05:59;100870.16;;;26.01;27.18
63916;BME280;50094;51.356;-0.196;2023-06-14T00:08:26;100869.40;;;26.24;26.91
63916;BME280;50094;51.356;-0.196;2023-06-14T00:10:53;100867.29;;;26.34;27.15
63916;BME280;50094;51.356;-0.196;2023-06-14T00:13:20;100867.62;;;26.06;26.32
63916;BME280;50094;51.356;-0.196;2023-06-14T00:15:47;100865.75;;;25.98;26.38
63916;BME280;50094;51.356;-0.196;2023-06-14T00:18:14;100865.37;;;25.79;26.52
63916;BME280;50094;51.356;-0.196;2023-06-14T00:20:40;100865.07;;;26.05;26.72
63916;BME280;50094;51.356;-0.196;2023-06-14T00:23:07;100863.42;;;26.26;26.62
63916;BME280;50094;51.356;-0.196;2023-06-14T00:25:34;100865.44;;;26.37;26.76
63916;BME280;50094;51.356;-0.196;2023-06-14T00:28:01;100865.44;;;25.78;26.84
63916;BME280;50094;51.356;-0.196;2023-06-14T00:30:28;100870.01;;;26.18;26.67
63916;BME280;50094;51.356;-0.196;2023-06-14T00:32:55;100869.96;;;26.56;26.61
63916;BME280;50094;51.356;-0.196;2023-06-14T00:35:22;100871.53;;;26.31;26.46
63916;BME280;50094;51.356;-0.196;2023-06-14T00:37:49;100873.34;;;26.15;26.35
63916;BME280;50094;51.356;-0.196;2023-06-14T00:40:16;100873.57;;;25.93;26.48
63916;BME280;50094;51.356;-0.196;2023-06-14T00:42:43;100874.50;;;25.67;26.67
63916;BME280;50094;51.356;-0.196;2023-06-14T00:45:11;100872.05;;;25.87;26.30
63916;BME280;50094;51.356;-0.196;2023-06-14T00:47:38;100868.90;;;25.80;26.31
63916;BME280;50094;51.356;-0.196;2023-06-14T00:50:09;100869.72;;;25.88;26.16
63916;BME280;50094;51.356;-0.196;2023-06-14T00:52:36;100873.18;;;25.46;26.30
63916;BME280;50094;51.356;-0.196;2023-06-14T00:55:04;100875.36;;;25.54;25.74
63916;BME280;50094;51.356;-0.196;2023-06-14T00:57:32;100879.23;;;26.18;25.98
63916;BME280;50094;51.356;-0.196;2023-06-14T00:59:59;100876.26;;;25.86;25.91
63916;BME280;50094;51.356;-0.196;2023-06-14T01:02:26;100875.91;;;25.73;25.68
63916;BME280;50094;51.356;-0.196;2023-06-14T01:04:53;100873.66;;;26.10;26.31
63916;BME280;50094;51.356;-0.196;2023-06-14T01:07:27;100873.26;;;25.79;26.08
63916;BME280;50094;51.356;-0.196;2023-06-14T01:10:09;100877.83;;;26.09;25.98
63916;BME280;50094;51.356;-0.196;2023-06-14T01:12:48;100876.97;;;26.07;25.77
63916;BME280;50094;51.356;-0.196;2023-06-14T01:15:19;100878.25;;;26.02;26.06
63916;BME280;50094;51.356;-0.196;2023-06-14T01:17:49;100882.73;;;25.59;26.14
63916;BME280;50094;51.356;-0.196;2023-06-14T01:20:17;100883.92;;;25.99;26.30
63916;BME280;50094;51.356;-0.196;2023-06-14T01:22:50;100887.96;;;26.28;26.03
63916;BME280;50094;51.356;-0.196;2023-06-14T01:25:18;100888.59;;;26.65;26.04
63916;BME280;50094;51.356;-0.196;2023-06-14T01:27:47;100891.15;;;26.54;26.13
63916;BME280;50094;51.356;-0.196;2023-06-14T01:30:15;100887.92;;;25.91;26.44
63916;BME280;50094;51.356;-0.196;2023-06-14T01:32:44;100887.59;;;26.36;26.40
63916;BME280;50094;51.356;-0.196;2023-06-14T01:35:12;100887.48;;;25.65;26.68
63916;BME280;50094;51.356;-0.196;2023-06-14T01:37:39;100884.18;;;25.17;26.41
63916;BME280;50094;51.356;-0.196;2023-06-14T01:40:10;100881.99;;;25.72;26.48
63916;BME280;50094;51.356;-0.196;2023-06-14T01:42:38;100885.05;;;25.89;26.74
63916;BME280;50094;51.356;-0.196;2023-06-14T01:45:07;100886.21;;;25.94;26.70
63916;BME280;50094;51.356;-0.196;2023-06-14T01:47:36;100882.66;;;25.61;27.14
63916;BME280;50094;51.356;-0.196;2023-06-14T01:50:04;100885.39;;;25.35;27.20
63916;BME280;50094;51.356;-0.196;2023-06-14T01:52:32;100883.33;;;25.15;27.52
63916;BME280;50094;51.356;-0.196;2023-06-14T01:54:59;100881.25;;;25.55;27.58
63916;BME280;50094;51.356;-0.196;2023-06-14T01:57:26;100882.13;;;25.22;27.74
63916;BME280;50094;51.356;-0.196;2023-06-14T01:59:53;100874.24;;;25.48;27.88
63916;BME280;50094;51.356;-0.196;2023-06-14T02:02:20;100873.75;;;24.87;28.10
63916;BME280;50094;51.356;-0.196;2023-06-14T02:04:47;100866.74;;;25.30;28.08
63916;BME280;50094;51.356;-0.196;2023-06-14T02:07:14;100866.02;;;25.10;28.30
63916;BME280;50094;51.356;-0.196;2023-06-14T02:09:42;100867.11;;;25.18;28.21
63916;BME280;50094;51.356;-0.196;2023-06-14T02:12:09;100867.91;;;25.57;28.27
63916;BME280;50094;51.356;-0.196;2023-06-14T02:14:36;100863.55;;;25.43;28.50
63916;BME280;50094;51.356;-0.196;2023-06-14T02:17:04;100863.47;;;25.22;28.83
63916;BME280;50094;51.356;-0.196;2023-06-14T02:19:31;100861.55;;;25.30;29.03
63916;BME280;50094;51.356;-0.196;2023-06-14T02:21:59;100863.32;;;25.04;29.03
63916;BME280;50094;51.356;-0.196;2023-06-14T02:24:25;100863.98;;;25.07;29.36
63916;BME280;50094;51.356;-0.196;2023-06-14T02:26:52;100867.13;;;25.22;29.16
63916;BME280;50094;51.356;-0.196;2023-06-14T02:29:19;100866.95;;;25.10;29.38
63916;BME280;50094;51.356;-0.196;2023-06-14T02:31:46;100867.44;;;24.53;29.68
63916;BME280;50094;51.356;-0.196;2023-06-14T02:34:14;100863.93;;;24.93;29.43
63916;BME280;50094;51.356;-0.196;2023-06-14T02:36:41;100863.62;;;24.97;29.70
63916;BME280;50094;51.356;-0.196;2023-06-14T02:39:07;100864.56;;;24.73;29.70
63916;BME280;50094;51.356;-0.196;2023-06-14T02:41:34;100863.99;;;24.95;29.80
63916;BME280;50094;51.356;-0.196;2023-06-14T02:44:01;100863.42;;;25.04;29.98
63916;BME280;50094;51.356;-0.196;2023-06-14T02:46:28;100861.47;;;24.48;30.03
63916;BME280;50094;51.356;-0.196;2023-06-14T02:48:55;100859.23;;;24.63;30.15
63916;BME280;50094;51.356;-0.196;2023-06-14T02:51:22;100860.66;;;25.36;29.81
63916;BME280;50094;51.356;-0.196;2023-06-14T02:53:49;100861.11;;;25.11;30.13
63916;BME280;50094;51.356;-0.196;2023-06-14T02:56:15;100863.25;;;25.14;30.21
63916;BME280;50094;51.356;-0.196;2023-06-14T02:58:42;100863.83;;;24.39;30.35
63916;BME280;50094;51.356;-0.196;2023-06-14T03:01:09;100863.07;;;24.77;30.52
63916;BME280;50094;51.356;-0.196;2023-06-14T03:03:36;100864.98;;;24.81;30.50
63916;BME280;50094;51.356;-0.196;2023-06-14T03:06:04;100863.47;;;24.90;30.40
63916;BME280;50094;51.356;-0.196;2023-06-14T03:08:31;100864.27;;;25.24;30.24
63916;BME280;50094;51.356;-0.196;2023-06-14T03:10:59;100860.86;;;24.65;30.68
63916;BME280;50094;51.356;-0.196;2023-06-14T03:13:26;100859.74;;;25.31;30.52
63916;BME280;50094;51.356;-0.196;2023-06-14T03:15:53;100863.71;;;24.99;30.74
63916;BME280;50094;51.356;-0.196;2023-06-14T03:18:20;100863.59;;;25.19;30.66
63916;BME280;50094;51.356;-0.196;2023-06-14T03:20:46;100861.58;;;24.85;30.84
63916;BME280;50094;51.356;-0.196;2023-06-14T03:23:13;100862.95;;;24.99;30.89
63916;BME280;50094;51.356;-0.196;2023-06-14T03:25:40;100864.78;;;24.74;30.96
63916;BME280;50094;51.356;-0.196;2023-06-14T03:28:07;100868.54;;;25.19;30.88
63916;BME280;50094;51.356;-0.196;2023-06-14T03:30:35;100868.98;;;25.10;30.90
63916;BME280;50094;51.356;-0.196;2023-06-14T03:33:02;100870.55;;;24.89;31.12
63916;BME280;50094;51.356;-0.196;2023-06-14T03:35:29;100869.00;;;24.74;31.29
63916;BME280;50094;51.356;-0.196;2023-06-14T03:37:56;100868.08;;;24.83;31.08
63916;BME280;50094;51.356;-0.196;2023-06-14T03:40:23;100866.43;;;24.63;31.17
63916;BME280;50094;51.356;-0.196;2023-06-14T03:42:50;100868.58;;;24.70;31.36
63916;BME280;50094;51.356;-0.196;2023-06-14T03:45:17;100869.45;;;24.72;31.39
63916;BME280;50094;51.356;-0.196;2023-06-14T03:47:44;100871.42;;;24.58;31.49
63916;BME280;50094;51.356;-0.196;2023-06-14T03:50:11;100870.40;;;24.58;31.37
63916;BME280;50094;51.356;-0.196;2023-06-14T03:52:38;100873.36;;;24.64;31.47
63916;BME280;50094;51.356;-0.196;2023-06-14T03:55:06;100876.99;;;24.44;31.59
63916;BME280;50094;51.356;-0.196;2023-06-14T03:57:33;100878.54;;;24.60;31.66
63916;BME280;50094;51.356;-0.196;2023-06-14T03:59:59;100877.22;;;24.93;31.49
63916;BME280;50094;51.356;-0.196;2023-06-14T04:02:26;100883.07;;;24.67;31.65
63916;BME280;50094;51.356;-0.196;2023-06-14T04:04:53;100875.42;;;24.82;31.59
63916;BME280;50094;51.356;-0.196;2023-06-14T04:07:20;100874.50;;;25.40;31.14
63916;BME280;50094;51.356;-0.196;2023-06-14T04:09:47;100872.72;;;25.12;31.54
63916;BME280;50094;51.356;-0.196;2023-06-14T04:12:14;100870.48;;;25.35;31.28
63916;BME280;50094;51.356;-0.196;2023-06-14T04:14:41;100871.65;;;24.77;31.53
63916;BME280;50094;51.356;-0.196;2023-06-14T04:17:08;100872.86;;;24.95;31.64
63916;BME280;50094;51.356;-0.196;2023-06-14T04:19:35;100873.55;;;24.75;31.85
63916;BME280;50094;51.356;-0.196;2023-06-14T04:22:02;100871.49;;;24.79;31.71
63916;BME280;50094;51.356;-0.196;2023-06-14T04:24:30;100875.81;;;24.85;31.90
63916;BME280;50094;51.356;-0.196;2023-06-14T04:26:57;100876.91;;;25.05;31.66
63916;BME280;50094;51.356;-0.196;2023-06-14T04:29:25;100876.51;;;24.95;31.69
63916;BME280;50094;51.356;-0.196;2023-06-14T04:31:54;100876.15;;;25.26;31.76
63916;BME280;50094;51.356;-0.196;2023-06-14T04:34:21;100875.39;;;25.15;31.59
63916;BME280;50094;51.356;-0.196;2023-06-14T04:36:48;100874.94;;;24.97;31.99
63916;BME280;50094;51.356;-0.196;2023-06-14T04:39:15;100878.24;;;25.18;31.76
63916;BME280;50094;51.356;-0.196;2023-06-14T04:41:43;100880.59;;;24.87;32.18
63916;BME280;50094;51.356;-0.196;2023-06-14T04:44:11;100883.04;;;24.93;32.22
63916;BME280;50094;51.356;-0.196;2023-06-14T04:46:38;100883.55;;;24.88;32.14
63916;BME280;50094;51.356;-0.196;2023-06-14T04:49:05;100885.38;;;24.94;32.20
63916;BME280;50094;51.356;-0.196;2023-06-14T04:51:32;100891.48;;;24.54;32.30
63916;BME280;50094;51.356;-0.196;2023-06-14T04:53:59;100891.63;;;24.45;32.44
63916;BME280;50094;51.356;-0.196;2023-06-14T04:56:25;100890.33;;;24.63;32.48
63916;BME280;50094;51.356;-0.196;2023-06-14T04:58:52;100891.19;;;24.30;32.65
63916;BME280;50094;51.356;-0.196;2023-06-14T05:01:20;100892.37;;;24.74;32.42
63916;BME280;50094;51.356;-0.196;2023-06-14T05:03:47;100897.85;;;24.62;32.45
63916;BME280;50094;51.356;-0.196;2023-06-14T05:06:14;100894.64;;;24.38;32.61
63916;BME280;50094;51.356;-0.196;2023-06-14T05:08:42;100893.30;;;24.53;32.64
63916;BME280;50094;51.356;-0.196;2023-06-14T05:11:09;100888.21;;;24.56;32.48
63916;BME280;50094;51.356;-0.196;2023-06-14T05:13:35;100888.14;;;24.63;32.44
63916;BME280;50094;51.356;-0.196;2023-06-14T05:16:03;100889.84;;;25.18;32.27
63916;BME280;50094;51.356;-0.196;2023-06-14T05:18:30;100895.14;;;24.60;32.52
63916;BME280;50094;51.356;-0.196;2023-06-14T05:20:57;100894.60;;;24.49;32.63
63916;BME280;50094;51.356;-0.196;2023-06-14T05:23:24;100892.20;;;25.20;32.20
63916;BME280;50094;51.356;-0.196;2023-06-14T05:25:51;100892.13;;;25.59;31.91
63916;BME280;50094;51.356;-0.196;2023-06-14T05:28:18;100892.10;;;25.33;32.04
63916;BME280;50094;51.356;-0.196;2023-06-14T05:30:45;100893.13;;;25.99;31.63
63916;BME280;50094;51.356;-0.196;2023-06-14T05:33:12;100899.34;;;25.91;31.77
63916;BME280;50094;51.356;-0.196;2023-06-14T05:35:39;100895.91;;;25.43;31.92
63916;BME280;50094;51.356;-0.196;2023-06-14T05:38:06;100895.75;;;26.08;31.64
63916;BME280;50094;51.356;-0.196;2023-06-14T05:40:34;100895.36;;;25.84;31.91
63916;BME280;50094;51.356;-0.196;2023-06-14T05:43:01;100894.94;;;25.87;32.23
63916;BME280;50094;51.356;-0.196;2023-06-14T05:45:29;100898.49;;;26.10;32.21
63916;BME280;50094;51.356;-0.196;2023-06-14T05:47:56;100901.91;;;26.55;31.75
63916;BME280;50094;51.356;-0.196;2023-06-14T05:50:23;100906.04;;;26.25;32.50
63916;BME280;50094;51.356;-0.196;2023-06-14T05:52:50;100904.30;;;26.07;32.60
63916;BME280;50094;51.356;-0.196;2023-06-14T05:55:17;100907.04;;;26.55;32.86
63916;BME280;50094;51.356;-0.196;2023-06-14T05:57:44;100901.63;;;25.88;32.98
63916;BME280;50094;51.356;-0.196;2023-06-14T06:00:12;100901.06;;;25.79;33.10
63916;BME280;50094;51.356;-0.196;2023-06-14T06:02:40;100899.99;;;26.16;32.92
63916;BME280;50094;51.356;-0.196;2023-06-14T06:05:08;100901.04;;;26.18;32.94
63916;BME280;50094;51.356;-0.196;2023-06-14T06:07:34;100899.38;;;26.19;32.96
63916;BME280;50094;51.356;-0.196;2023-06-14T06:10:02;100900.51;;;26.21;32.97
63916;BME280;50094;51.356;-0.196;2023-06-14T06:12:29;100898.97;;;26.05;33.02
63916;BME280;50094;51.356;-0.196;2023-06-14T06:14:57;100900.55;;;26.26;32.82
63916;BME280;50094;51.356;-0.196;2023-06-14T06:17:25;100900.55;;;26.46;32.76
63916;BME280;50094;51.356;-0.196;2023-06-14T06:19:52;100901.46;;;26.25;32.90
63916;BME280;50094;51.356;-0.196;2023-06-14T06:22:19;100902.75;;;26.48;33.18
63916;BME280;50094;51.356;-0.196;2023-06-14T06:24:47;100905.13;;;26.48;33.21
63916;BME280;50094;51.356;-0.196;2023-06-14T06:27:14;100906.45;;;26.47;33.41
63916;BME280;50094;51.356;-0.196;2023-06-14T06:29:42;100905.99;;;26.29;33.80
63916;BME280;50094;51.356;-0.196;2023-06-14T06:32:10;100908.66;;;26.37;33.51
63916;BME280;50094;51.356;-0.196;2023-06-14T06:34:37;100910.11;;;25.98;33.94
63916;BME280;50094;51.356;-0.196;2023-06-14T06:37:05;100914.13;;;25.86;33.72
63916;BME280;50094;51.356;-0.196;2023-06-14T06:39:32;100915.54;;;26.11;33.65
63916;BME280;50094;51.356;-0.196;2023-06-14T06:42:00;100915.37;;;26.09;33.69
63916;BME280;50094;51.356;-0.196;2023-06-14T06:44:27;100913.74;;;26.05;33.53
63916;BME280;50094;51.356;-0.196;2023-06-14T06:46:53;100913.31;;;26.30;33.41
63916;BME280;50094;51.356;-0.196;2023-06-14T06:49:20;100912.65;;;26.05;33.43
63916;BME280;50094;51.356;-0.196;2023-06-14T06:52:00;100912.76;;;26.22;33.42
63916;BME280;50094;51.356;-0.196;2023-06-14T06:54:27;100914.65;;;26.18;33.42
63916;BME280;50094;51.356;-0.196;2023-06-14T06:56:55;100915.94;;;26.30;33.33
63916;BME280;50094;51.356;-0.196;2023-06-14T06:59:22;100917.89;;;26.31;33.33
63916;BME280;50094;51.356;-0.196;2023-06-14T07:01:49;100919.37;;;26.34;33.30
63916;BME280;50094;51.356;-0.196;2023-06-14T07:04:16;100918.83;;;26.09;33.33
63916;BME280;50094;51.356;-0.196;2023-06-14T07:06:43;100921.84;;;25.70;33.50
63916;BME280;50094;51.356;-0.196;2023-06-14T07:09:11;100921.33;;;26.16;33.50
63916;BME280;50094;51.356;-0.196;2023-06-14T07:11:38;100923.53;;;25.96;33.50
63916;BME280;50094;51.356;-0.196;2023-06-14T07:14:06;100921.66;;;26.12;33.58
63916;BME280;50094;51.356;-0.196;2023-06-14T07:16:33;100923.52;;;26.07;33.41
63916;BME280;50094;51.356;-0.196;2023-06-14T07:19:01;100924.22;;;25.92;33.58
63916;BME280;50094;51.356;-0.196;2023-06-14T07:21:28;100924.25;;;26.24;33.47
63916;BME280;50094;51.356;-0.196;2023-06-14T07:23:56;100923.76;;;26.27;33.43
63916;BME280;50094;51.356;-0.196;2023-06-14T07:26:23;100924.14;;;26.16;33.56
63916;BME280;50094;51.356;-0.196;2023-06-14T07:28:50;100932.29;;;26.44;33.29
63916;BME280;50094;51.356;-0.196;2023-06-14T07:31:18;100933.12;;;26.34;33.40
63916;BME280;50094;51.356;-0.196;2023-06-14T07:33:45;100936.73;;;26.18;33.60
63916;BME280;50094;51.356;-0.196;2023-06-14T07:36:13;100941.52;;;25.86;33.69
63916;BME280;50094;51.356;-0.196;2023-06-14T07:38:40;100943.46;;;25.70;33.66
63916;BME280;50094;51.356;-0.196;2023-06-14T07:41:08;100942.74;;;25.86;33.82
63916;BME280;50094;51.356;-0.196;2023-06-14T07:43:35;100938.52;;;26.20;33.70
63916;BME280;50094;51.356;-0.196;2023-06-14T07:46:03;100940.03;;;26.26;33.63
63916;BME280;50094;51.356;-0.196;2023-06-14T07:48:30;100942.41;;;26.12;33.77
63916;BME280;50094;51.356;-0.196;2023-06-14T07:50:56;100942.19;;;26.24;33.66
63916;BME280;50094;51.356;-0.196;2023-06-14T07:53:23;100942.41;;;26.14;33.55
63916;BME280;50094;51.356;-0.196;2023-06-14T07:55:50;100941.41;;;26.45;33.47
63916;BME280;50094;51.356;-0.196;2023-06-14T07:58:17;100945.38;;;25.98;33.79
63916;BME280;50094;51.356;-0.196;2023-06-14T08:00:44;100943.68;;;26.30;33.69
63916;BME280;50094;51.356;-0.196;2023-06-14T08:03:11;100941.63;;;26.15;33.62
63916;BME280;50094;51.356;-0.196;2023-06-14T08:05:38;100947.94;;;26.04;33.80
63916;BME280;50094;51.356;-0.196;2023-06-14T08:08:05;100946.67;;;25.84;33.79
63916;BME280;50094;51.356;-0.196;2023-06-14T08:10:32;100945.73;;;26.38;33.71
63916;BME280;50094;51.356;-0.196;2023-06-14T08:12:59;100952.51;;;25.95;33.93
63916;BME280;50094;51.356;-0.196;2023-06-14T08:15:26;100950.23;;;26.41;33.71
63916;BME280;50094;51.356;-0.196;2023-06-14T08:17:53;100951.54;;;26.15;33.74
63916;BME280;50094;51.356;-0.196;2023-06-14T08:20:20;100952.63;;;26.31;33.62
63916;BME280;50094;51.356;-0.196;2023-06-14T08:22:47;100950.12;;;26.35;33.83
63916;BME280;50094;51.356;-0.196;2023-06-14T08:25:14;100956.39;;;26.48;33.68
63916;BME280;50094;51.356;-0.196;2023-06-14T08:27:40;100954.47;;;26.27;33.71
63916;BME280;50094;51.356;-0.196;2023-06-14T08:30:09;100953.27;;;26.09;33.66
63916;BME280;50094;51.356;-0.196;2023-06-14T08:32:36;100951.91;;;26.33;33.90
63916;BME280;50094;51.356;-0.196;2023-06-14T08:35:04;100955.66;;;26.28;33.97
63916;BME280;50094;51.356;-0.196;2023-06-14T08:37:31;100949.57;;;26.42;33.86
63916;BME280;50094;51.356;-0.196;2023-06-14T08:39:58;100954.03;;;26.47;33.81
63916;BME280;50094;51.356;-0.196;2023-06-14T08:42:25;100953.15;;;26.49;34.11
63916;BME280;50094;51.356;-0.196;2023-06-14T08:44:52;100958.72;;;26.22;33.88
63916;BME280;50094;51.356;-0.196;2023-06-14T08:47:19;100955.79;;;26.47;33.87
63916;BME280;50094;51.356;-0.196;2023-06-14T08:49:47;100953.62;;;26.34;34.04
63916;BME280;50094;51.356;-0.196;2023-06-14T08:52:16;100956.13;;;26.16;33.98
63916;BME280;50094;51.356;-0.196;2023-06-14T08:54:47;100958.25;;;25.94;34.01
63916;BME280;50094;51.356;-0.196;2023-06-14T08:57:14;100959.70;;;26.44;33.94
63916;BME280;50094;51.356;-0.196;2023-06-14T08:59:46;100959.12;;;26.21;34.06
63916;BME280;50094;51.356;-0.196;2023-06-14T09:02:13;100961.44;;;26.52;33.93
63916;BME280;50094;51.356;-0.196;2023-06-14T09:04:41;100964.43;;;26.43;34.00
63916;BME280;50094;51.356;-0.196;2023-06-14T09:07:08;100959.39;;;26.09;34.18
63916;BME280;50094;51.356;-0.196;2023-06-14T09:09:38;100959.25;;;26.09;34.15
63916;BME280;50094;51.356;-0.196;2023-06-14T09:12:08;100958.92;;;26.02;34.04
63916;BME280;50094;51.356;-0.196;2023-06-14T09:14:35;100956.54;;;26.19;34.06
63916;BME280;50094;51.356;-0.196;2023-06-14T09:17:02;100955.01;;;26.20;34.07
63916;BME280;50094;51.356;-0.196;2023-06-14T09:19:29;100964.22;;;26.53;33.97
63916;BME280;50094;51.356;-0.196;2023-06-14T09:21:56;100965.41;;;26.05;34.25
63916;BME280;50094;51.356;-0.196;2023-06-14T09:24:24;100966.80;;;26.57;33.97
63916;BME280;50094;51.356;-0.196;2023-06-14T09:26:52;100968.90;;;26.18;34.15
63916;BME280;50094;51.356;-0.196;2023-06-14T09:29:20;100968.33;;;25.99;34.37
63916;BME280;50094;51.356;-0.196;2023-06-14T09:31:47;100978.42;;;26.18;34.42
63916;BME280;50094;51.356;-0.196;2023-06-14T09:34:16;100974.50;;;26.22;34.39
63916;BME280;50094;51.356;-0.196;2023-06-14T09:36:43;100976.67;;;26.05;34.35
63916;BME280;50094;51.356;-0.196;2023-06-14T09:39:16;100974.54;;;26.08;34.31
63916;BME280;50094;51.356;-0.196;2023-06-14T09:41:44;100976.51;;;26.07;34.31
63916;BME280;50094;51.356;-0.196;2023-06-14T09:44:11;100973.60;;;26.33;34.29
63916;BME280;50094;51.356;-0.196;2023-06-14T09:46:38;100977.82;;;26.58;34.02
63916;BME280;50094;51.356;-0.196;2023-06-14T09:49:06;100975.16;;;26.18;34.19
63916;BME280;50094;51.356;-0.196;2023-06-14T09:51:34;100971.74;;;26.10;34.26
63916;BME280;50094;51.356;-0.196;2023-06-14T09:54:02;100968.84;;;26.19;34.18
63916;BME280;50094;51.356;-0.196;2023-06-14T09:56:38;100967.74;;;26.43;34.16
63916;BME280;50094;51.356;-0.196;2023-06-14T09:59:09;100970.00;;;26.40;34.20
63916;BME280;50094;51.356;-0.196;2023-06-14T10:01:41;100970.33;;;26.04;34.08
63916;BME280;50094;51.356;-0.196;2023-06-14T10:04:10;100974.95;;;26.30;34.36
63916;BME280;50094;51.356;-0.196;2023-06-14T10:06:40;100973.41;;;26.26;34.38
63916;BME280;50094;51.356;-0.196;2023-06-14T10:09:09;100976.16;;;26.19;34.49
63916;BME280;50094;51.356;-0.196;2023-06-14T10:11:37;100976.69;;;26.10;34.31
63916;BME280;50094;51.356;-0.196;2023-06-14T10:14:05;100972.96;;;26.01;34.41
63916;BME280;50094;51.356;-0.196;2023-06-14T10:16:36;100972.43;;;26.11;34.30
63916;BME280;50094;51.356;-0.196;2023-06-14T10:19:11;100971.79;;;26.52;34.09
63916;BME280;50094;51.356;-0.196;2023-06-14T10:21:54;100968.78;;;26.29;34.34
63916;BME280;50094;51.356;-0.196;2023-06-14T10:24:28;100963.23;;;26.43;34.16
63916;BME280;50094;51.356;-0.196;2023-06-14T10:26:57;100961.79;;;26.28;34.12
63916;BME280;50094;51.356;-0.196;2023-06-14T10:29:26;100966.17;;;26.02;34.14
63916;BME280;50094;51.356;-0.196;2023-06-14T10:31:57;100967.71;;;26.51;34.10
63916;BME280;50094;51.356;-0.196;2023-06-14T10:34:25;100963.55;;;26.42;34.21
63916;BME280;50094;51.356;-0.196;2023-06-14T10:37:12;100961.89;;;26.21;34.15
63916;BME280;50094;51.356;-0.196;2023-06-14T10:39:41;100961.09;;;26.35;34.27
63916;BME280;50094;51.356;-0.196;2023-06-14T10:42:09;100958.62;;;26.23;34.15
63916;BME280;50094;51.356;-0.196;2023-06-14T10:44:39;100964.20;;;26.29;34.32
63916;BME280;50094;51.356;-0.196;2023-06-14T10:47:08;100957.65;;;26.44;34.16
63916;BME280;50094;51.356;-0.196;2023-06-14T10:49:39;100959.38;;;26.42;34.18
63916;BME280;50094;51.356;-0.196;2023-06-14T10:52:08;100958.36;;;26.39;34.23
63916;BME280;50094;51.356;-0.196;2023-06-14T10:54:35;100966.78;;;26.25;34.38
63916;BME280;50094;51.356;-0.196;2023-06-14T10:57:06;100961.86;;;26.35;34.26
63916;BME280;50094;51.356;-0.196;2023-06-14T10:59:33;100960.27;;;26.36;34.25
63916;BME280;50094;51.356;-0.196;2023-06-14T11:02:14;100957.35;;;26.40;34.17
63916;BME280;50094;51.356;-0.196;2023-06-14T11:04:49;100961.64;;;26.23;34.34
63916;BME280;50094;51.356;-0.196;2023-06-14T11:07:33;100958.63;;;26.24;34.35
63916;BME280;50094;51.356;-0.196;2023-06-14T11:10:19;100960.58;;;26.31;34.27
63916;BME280;50094;51.356;-0.196;2023-06-14T11:12:52;100951.08;;;26.05;34.04
63916;BME280;50094;51.356;-0.196;2023-06-14T11:15:28;100951.83;;;26.38;34.13
63916;BME280;50094;51.356;-0.196;2023-06-14T11:17:55;100946.00;;;26.46;34.04
63916;BME280;50094;51.356;-0.196;2023-06-14T11:20:26;100948.88;;;26.32;34.15
63916;BME280;50094;51.356;-0.196;2023-06-14T11:22:54;100944.81;;;26.44;33.99
63916;BME280;50094;51.356;-0.196;2023-06-14T11:25:21;100939.64;;;26.35;34.02
63916;BME280;50094;51.356;-0.196;2023-06-14T11:27:49;100942.62;;;26.56;33.81
63916;BME280;50094;51.356;-0.196;2023-06-14T11:30:18;100944.55;;;26.18;33.94
63916;BME280;50094;51.356;-0.196;2023-06-14T11:32:46;100942.39;;;26.36;34.00
63916;BME280;50094;51.356;-0.196;2023-06-14T11:35:15;100942.27;;;26.33;34.00
63916;BME280;50094;51.356;-0.196;2023-06-14T11:37:42;100940.39;;;26.61;33.72
63916;BME280;50094;51.356;-0.196;2023-06-14T11:40:11;100936.66;;;26.41;33.84
63916;BME280;50094;51.356;-0.196;2023-06-14T11:42:40;100937.38;;;26.42;33.84
63916;BME280;50094;51.356;-0.196;2023-06-14T11:45:09;100931.78;;;26.10;33.89
63916;BME280;50094;51.356;-0.196;2023-06-14T11:47:38;100932.60;;;26.04;33.91
63916;BME280;50094;51.356;-0.196;2023-06-14T11:50:08;100934.86;;;26.65;33.83
63916;BME280;50094;51.356;-0.196;2023-06-14T11:52:36;100931.21;;;26.43;33.75
63916;BME280;50094;51.356;-0.196;2023-06-14T11:55:05;100925.61;;;25.63;33.79
63916;BME280;50094;51.356;-0.196;2023-06-14T11:57:34;100926.20;;;26.21;33.94
63916;BME280;50094;51.356;-0.196;2023-06-14T12:00:03;100936.70;;;26.04;33.64
63916;BME280;50094;51.356;-0.196;2023-06-14T12:02:31;100937.90;;;26.33;33.70
63916;BME280;50094;51.356;-0.196;2023-06-14T12:05:04;100931.25;;;26.46;33.52
63916;BME280;50094;51.356;-0.196;2023-06-14T12:07:31;100932.96;;;26.40;33.61
63916;BME280;50094;51.356;-0.196;2023-06-14T12:10:08;100932.62;;;26.08;33.44
63916;BME280;50094;51.356;-0.196;2023-06-14T12:12:37;100931.01;;;26.31;33.39
63916;BME280;50094;51.356;-0.196;2023-06-14T12:15:06;100932.32;;;26.36;33.39
63916;BME280;50094;51.356;-0.196;2023-06-14T12:17:34;100931.39;;;26.25;33.09
63916;BME280;50094;51.356;-0.196;2023-06-14T12:20:06;100926.86;;;25.90;33.51
63916;BME280;50094;51.356;-0.196;2023-06-14T12:22:33;100926.72;;;26.33;32.99
63916;BME280;50094;51.356;-0.196;2023-06-14T12:25:00;100926.24;;;26.25;33.19
63916;BME280;50094;51.356;-0.196;2023-06-14T12:27:28;100926.66;;;26.51;32.95
63916;BME280;50094;51.356;-0.196;2023-06-14T12:29:59;100925.03;;;26.15;32.93
63916;BME280;50094;51.356;-0.196;2023-06-14T12:32:27;100924.56;;;26.80;32.63
63916;BME280;50094;51.356;-0.196;2023-06-14T12:34:54;100929.15;;;26.50;32.87
63916;BME280;50094;51.356;-0.196;2023-06-14T12:37:22;100929.81;;;26.55;32.75
63916;BME280;50094;51.356;-0.196;2023-06-14T12:39:49;100928.73;;;26.51;32.80
63916;BME280;50094;51.356;-0.196;2023-06-14T12:42:17;100924.82;;;26.30;32.74
63916;BME280;50094;51.356;-0.196;2023-06-14T12:44:44;100926.28;;;26.63;32.46